Beaver, OR

11:29 AM PST on December 21, 2014 (GMT -0800)
MesoWest Mount Hebo OR US BPANET | Change Station
CLOSE
Current Station
Personal Weather Station
Location: Hebo, OR
Elevation: 3169 ft
Nearby Weather Stations

Elev 3169 ft 45.21 °N, 123.75 °W | Updated 7 hours ago

Rain
Rain
56 °F
Feels Like 56 °F
N
14
Wind Variable Wind from West
Gusts 16 mph

Today
High -- | Low -- °F
--% Chance of Precip.
Yesterday
High -- | Low -- °F
Precip. -- in
7:51 AM 4:35 PM
Waning Crescent, 0% visible
Pressure 30.10 in
Visibility 5.0 miles
Clouds Scattered Clouds 1600 ft
Mostly Cloudy 5500 ft
Overcast 7000 ft
Dew Point 53 °F
Humidity 87%
Rainfall -999.00 in
Snow Depth Not available.
UV 0 out of 12
Pollen .50 out of 12
Air Quality Not available.
Flu Activity Not available.
METAR KTMK 211855Z AUTO 23010G14KT 5SM -RA SCT016 BKN055 OVC070 13/12 A3010 RMK AO2 P0001

More Conditions Fewer Conditions

Pressure 30.10 in
Visibility 5.0 miles
Clouds Scattered Clouds 1600 ft
Mostly Cloudy 5500 ft
Overcast 7000 ft
Dew Point 53 °F
Humidity 87%
Rainfall -999.00 in
Snow Depth Not available.
UV 0 out of 12
Pollen .50 out of 12
Air Quality Not available.
Flu Activity Not available.
METAR KTMK 211855Z AUTO 23010G14KT 5SM -RA SCT016 BKN055 OVC070 13/12 A3010 RMK AO2 P0001

More Conditions Fewer Conditions

10-Day Weather Forecast

Almanac

Astronomy

Dec. 21, 2014 Rise Set
Actual Time
Civil Twilight
Nautical Twilight
Astronomical Twilight
Moon
Length of Visible Light
Length of Day
Tomorrow will be .
, % of the Moon is Illuminated

Today's Extremes

State Highs State Lows

Community

WunderPhotos

Upload Photos

1,779,466 photos uploaded!

WunderBlogs® & News

Nearby

Air Quality

  Air Quality AQ Index Pollutant
Not available.

Snow Depth

Station Depth Elevation

Earthquake Activity

City Distance Mag. Time & Date
Minimum magnitude displayed is 2.5.

Coastal Water Temperatures

Place Temperature

Nearby Weather Stations